Rockport, Arkansas
Current Conditions -  °F | °C
As of 3:53 AM on Friday 19 Dec 2014 (Local Time) from KHOT Reporting Station
Haze Haze  
Wind Chill: 36°   Ceiling: 300
Heat Index: 40°   Visibility: 5mi
Dew Point: 39°   Wind: 6mph
Humidity: 97%   Direction: 90°E
Pressure: 30.19"   Gusts: NA
Location:  34.3189°N, 92.8629°W
Report Text: KHOT 190953Z AUTO 09005KT 5SM BR OVC003 04/04 A3019 RMK AO2 SLP225 T00440039
Loading
Personal Weather Stations






























Interactive Weather Map New forecast layout! Learn more

10-Day Weather Forecast

Advertisements
Track Severe Weather on mobile